sensor_id;sensor_type;location;lat;lon;timestamp;P1;durP1;ratioP1;P2;durP2;ratioP2
10823;SDS011;39116;59.332;18.034;2022-12-18T00:01:52;23.20;;;13.17;;
10823;SDS011;39116;59.332;18.034;2022-12-18T00:04:20;23.43;;;13.53;;
10823;SDS011;39116;59.332;18.034;2022-12-18T00:06:47;18.37;;;12.27;;
10823;SDS011;39116;59.332;18.034;2022-12-18T00:09:13;23.37;;;14.10;;
10823;SDS011;39116;59.332;18.034;2022-12-18T00:11:40;22.90;;;12.97;;
10823;SDS011;39116;59.332;18.034;2022-12-18T00:14:06;20.27;;;12.20;;
10823;SDS011;39116;59.332;18.034;2022-12-18T00:16:34;24.30;;;14.43;;
10823;SDS011;39116;59.332;18.034;2022-12-18T00:19:02;20.30;;;12.50;;
10823;SDS011;39116;59.332;18.034;2022-12-18T00:21:29;21.33;;;12.57;;
10823;SDS011;39116;59.332;18.034;2022-12-18T00:23:56;23.33;;;12.93;;
10823;SDS011;39116;59.332;18.034;2022-12-18T00:26:23;20.13;;;12.47;;
10823;SDS011;39116;59.332;18.034;2022-12-18T00:28:50;20.73;;;13.10;;
10823;SDS011;39116;59.332;18.034;2022-12-18T00:31:18;23.27;;;13.20;;
10823;SDS011;39116;59.332;18.034;2022-12-18T00:33:46;19.13;;;11.63;;
10823;SDS011;39116;59.332;18.034;2022-12-18T00:36:14;19.50;;;11.27;;
10823;SDS011;39116;59.332;18.034;2022-12-18T00:38:41;23.73;;;13.70;;
10823;SDS011;39116;59.332;18.034;2022-12-18T00:41:07;19.47;;;12.47;;
10823;SDS011;39116;59.332;18.034;2022-12-18T00:43:34;23.97;;;13.43;;
10823;SDS011;39116;59.332;18.034;2022-12-18T00:46:00;20.43;;;13.27;;
10823;SDS011;39116;59.332;18.034;2022-12-18T00:48:27;21.30;;;12.30;;
10823;SDS011;39116;59.332;18.034;2022-12-18T00:50:54;22.47;;;12.43;;
10823;SDS011;39116;59.332;18.034;2022-12-18T00:53:21;20.10;;;12.87;;
10823;SDS011;39116;59.332;18.034;2022-12-18T00:55:47;20.53;;;12.57;;
10823;SDS011;39116;59.332;18.034;2022-12-18T00:58:14;21.43;;;12.57;;
10823;SDS011;39116;59.332;18.034;2022-12-18T01:00:41;18.67;;;12.13;;
10823;SDS011;39116;59.332;18.034;2022-12-18T01:03:09;20.13;;;12.23;;
10823;SDS011;39116;59.332;18.034;2022-12-18T01:05:38;20.03;;;12.33;;
10823;SDS011;39116;59.332;18.034;2022-12-18T01:08:06;18.27;;;11.87;;
10823;SDS011;39116;59.332;18.034;2022-12-18T01:10:33;21.03;;;12.60;;
10823;SDS011;39116;59.332;18.034;2022-12-18T01:12:59;19.40;;;12.20;;
10823;SDS011;39116;59.332;18.034;2022-12-18T01:15:26;19.90;;;13.17;;
10823;SDS011;39116;59.332;18.034;2022-12-18T01:17:52;23.20;;;12.30;;
10823;SDS011;39116;59.332;18.034;2022-12-18T01:20:19;19.27;;;12.03;;
10823;SDS011;39116;59.332;18.034;2022-12-18T01:22:46;19.30;;;12.47;;
10823;SDS011;39116;59.332;18.034;2022-12-18T01:25:13;18.73;;;11.40;;
10823;SDS011;39116;59.332;18.034;2022-12-18T01:27:40;20.47;;;12.67;;
10823;SDS011;39116;59.332;18.034;2022-12-18T01:30:07;19.00;;;11.50;;
10823;SDS011;39116;59.332;18.034;2022-12-18T01:32:33;22.57;;;13.27;;
10823;SDS011;39116;59.332;18.034;2022-12-18T01:35:00;21.20;;;12.93;;
10823;SDS011;39116;59.332;18.034;2022-12-18T01:37:26;19.07;;;13.20;;
10823;SDS011;39116;59.332;18.034;2022-12-18T01:39:53;21.73;;;12.90;;
10823;SDS011;39116;59.332;18.034;2022-12-18T01:42:22;21.20;;;12.50;;
10823;SDS011;39116;59.332;18.034;2022-12-18T01:44:59;22.60;;;12.47;;
10823;SDS011;39116;59.332;18.034;2022-12-18T01:47:27;21.77;;;12.63;;
10823;SDS011;39116;59.332;18.034;2022-12-18T01:49:55;19.97;;;13.03;;
10823;SDS011;39116;59.332;18.034;2022-12-18T01:52:22;20.10;;;12.47;;
10823;SDS011;39116;59.332;18.034;2022-12-18T01:54:50;20.33;;;12.07;;
10823;SDS011;39116;59.332;18.034;2022-12-18T01:57:18;18.80;;;12.47;;
10823;SDS011;39116;59.332;18.034;2022-12-18T01:59:47;19.67;;;12.40;;
10823;SDS011;39116;59.332;18.034;2022-12-18T02:02:15;19.10;;;12.83;;
10823;SDS011;39116;59.332;18.034;2022-12-18T02:04:42;20.97;;;12.43;;
10823;SDS011;39116;59.332;18.034;2022-12-18T02:07:10;19.37;;;12.37;;
10823;SDS011;39116;59.332;18.034;2022-12-18T02:09:40;19.03;;;12.63;;
10823;SDS011;39116;59.332;18.034;2022-12-18T02:12:10;17.60;;;11.60;;
10823;SDS011;39116;59.332;18.034;2022-12-18T02:14:40;17.23;;;11.80;;
10823;SDS011;39116;59.332;18.034;2022-12-18T02:17:11;21.93;;;11.70;;
10823;SDS011;39116;59.332;18.034;2022-12-18T02:19:44;18.00;;;11.70;;
10823;SDS011;39116;59.332;18.034;2022-12-18T02:22:15;18.17;;;12.07;;
10823;SDS011;39116;59.332;18.034;2022-12-18T02:24:45;17.00;;;11.47;;
10823;SDS011;39116;59.332;18.034;2022-12-18T02:27:19;18.87;;;11.77;;
10823;SDS011;39116;59.332;18.034;2022-12-18T02:29:46;19.87;;;11.80;;
10823;SDS011;39116;59.332;18.034;2022-12-18T02:32:17;17.87;;;11.53;;
10823;SDS011;39116;59.332;18.034;2022-12-18T02:34:46;20.63;;;11.87;;
10823;SDS011;39116;59.332;18.034;2022-12-18T02:37:13;18.50;;;12.57;;
10823;SDS011;39116;59.332;18.034;2022-12-18T02:39:42;19.20;;;11.87;;
10823;SDS011;39116;59.332;18.034;2022-12-18T02:42:09;16.43;;;11.70;;
10823;SDS011;39116;59.332;18.034;2022-12-18T02:44:42;19.80;;;12.20;;
10823;SDS011;39116;59.332;18.034;2022-12-18T02:47:09;20.13;;;12.93;;
10823;SDS011;39116;59.332;18.034;2022-12-18T02:49:39;19.87;;;11.50;;
10823;SDS011;39116;59.332;18.034;2022-12-18T02:52:11;18.60;;;10.97;;
10823;SDS011;39116;59.332;18.034;2022-12-18T02:54:47;19.20;;;11.63;;
10823;SDS011;39116;59.332;18.034;2022-12-18T02:57:17;19.33;;;12.93;;
10823;SDS011;39116;59.332;18.034;2022-12-18T02:59:49;17.70;;;11.33;;
10823;SDS011;39116;59.332;18.034;2022-12-18T03:02:20;18.83;;;11.67;;
10823;SDS011;39116;59.332;18.034;2022-12-18T03:04:48;18.30;;;11.07;;
10823;SDS011;39116;59.332;18.034;2022-12-18T03:07:17;18.70;;;11.43;;
10823;SDS011;39116;59.332;18.034;2022-12-18T03:09:45;18.30;;;10.97;;
10823;SDS011;39116;59.332;18.034;2022-12-18T03:12:14;18.07;;;10.73;;
10823;SDS011;39116;59.332;18.034;2022-12-18T03:14:53;17.73;;;10.77;;
10823;SDS011;39116;59.332;18.034;2022-12-18T03:17:20;19.37;;;11.10;;
10823;SDS011;39116;59.332;18.034;2022-12-18T03:19:50;15.23;;;9.50;;
10823;SDS011;39116;59.332;18.034;2022-12-18T03:22:17;17.33;;;10.60;;
10823;SDS011;39116;59.332;18.034;2022-12-18T03:24:44;18.13;;;10.40;;
10823;SDS011;39116;59.332;18.034;2022-12-18T03:27:12;16.83;;;10.37;;
10823;SDS011;39116;59.332;18.034;2022-12-18T03:29:40;17.77;;;11.00;;
10823;SDS011;39116;59.332;18.034;2022-12-18T03:32:11;16.20;;;10.37;;
10823;SDS011;39116;59.332;18.034;2022-12-18T03:34:38;18.13;;;10.73;;
10823;SDS011;39116;59.332;18.034;2022-12-18T03:37:06;17.53;;;10.37;;
10823;SDS011;39116;59.332;18.034;2022-12-18T03:39:33;19.17;;;10.80;;
10823;SDS011;39116;59.332;18.034;2022-12-18T03:42:01;19.27;;;10.97;;
10823;SDS011;39116;59.332;18.034;2022-12-18T03:44:32;14.20;;;9.17;;
10823;SDS011;39116;59.332;18.034;2022-12-18T03:47:02;17.93;;;10.33;;
10823;SDS011;39116;59.332;18.034;2022-12-18T03:49:34;15.43;;;9.67;;
10823;SDS011;39116;59.332;18.034;2022-12-18T03:52:02;16.07;;;9.47;;
10823;SDS011;39116;59.332;18.034;2022-12-18T03:54:29;17.97;;;9.80;;
10823;SDS011;39116;59.332;18.034;2022-12-18T03:56:57;20.47;;;10.83;;
10823;SDS011;39116;59.332;18.034;2022-12-18T03:59:25;17.83;;;10.83;;
10823;SDS011;39116;59.332;18.034;2022-12-18T04:01:53;17.50;;;10.43;;
10823;SDS011;39116;59.332;18.034;2022-12-18T04:04:21;14.37;;;9.97;;
10823;SDS011;39116;59.332;18.034;2022-12-18T04:06:50;16.60;;;10.10;;
10823;SDS011;39116;59.332;18.034;2022-12-18T04:09:17;14.50;;;9.63;;
10823;SDS011;39116;59.332;18.034;2022-12-18T04:11:44;16.00;;;10.93;;
10823;SDS011;39116;59.332;18.034;2022-12-18T04:14:12;15.47;;;10.30;;
10823;SDS011;39116;59.332;18.034;2022-12-18T04:16:38;13.93;;;9.63;;
10823;SDS011;39116;59.332;18.034;2022-12-18T04:19:05;17.60;;;10.67;;
10823;SDS011;39116;59.332;18.034;2022-12-18T04:21:32;14.40;;;9.33;;
10823;SDS011;39116;59.332;18.034;2022-12-18T04:23:59;16.57;;;10.20;;
10823;SDS011;39116;59.332;18.034;2022-12-18T04:26:26;16.20;;;9.93;;
10823;SDS011;39116;59.332;18.034;2022-12-18T04:28:52;13.63;;;10.00;;
10823;SDS011;39116;59.332;18.034;2022-12-18T04:31:19;16.40;;;9.97;;
10823;SDS011;39116;59.332;18.034;2022-12-18T04:33:45;18.53;;;10.17;;
10823;SDS011;39116;59.332;18.034;2022-12-18T04:36:12;17.57;;;10.00;;
10823;SDS011;39116;59.332;18.034;2022-12-18T04:38:38;16.40;;;10.00;;
10823;SDS011;39116;59.332;18.034;2022-12-18T04:41:06;15.87;;;9.67;;
10823;SDS011;39116;59.332;18.034;2022-12-18T04:43:33;18.43;;;10.57;;
10823;SDS011;39116;59.332;18.034;2022-12-18T04:46:03;14.63;;;9.23;;
10823;SDS011;39116;59.332;18.034;2022-12-18T04:48:29;20.07;;;9.90;;
10823;SDS011;39116;59.332;18.034;2022-12-18T04:50:56;16.00;;;10.33;;
10823;SDS011;39116;59.332;18.034;2022-12-18T04:53:22;15.73;;;10.03;;
10823;SDS011;39116;59.332;18.034;2022-12-18T04:55:49;15.00;;;9.30;;
10823;SDS011;39116;59.332;18.034;2022-12-18T04:58:17;17.87;;;10.00;;
10823;SDS011;39116;59.332;18.034;2022-12-18T05:00:43;16.43;;;10.20;;
10823;SDS011;39116;59.332;18.034;2022-12-18T05:03:10;16.77;;;10.07;;
10823;SDS011;39116;59.332;18.034;2022-12-18T05:05:36;14.13;;;9.47;;
10823;SDS011;39116;59.332;18.034;2022-12-18T05:08:03;17.90;;;10.10;;
10823;SDS011;39116;59.332;18.034;2022-12-18T05:10:29;17.00;;;9.83;;
10823;SDS011;39116;59.332;18.034;2022-12-18T05:12:56;15.33;;;9.37;;
10823;SDS011;39116;59.332;18.034;2022-12-18T05:15:28;15.33;;;9.90;;
10823;SDS011;39116;59.332;18.034;2022-12-18T05:17:55;15.97;;;9.97;;
10823;SDS011;39116;59.332;18.034;2022-12-18T05:20:22;17.70;;;9.53;;
10823;SDS011;39116;59.332;18.034;2022-12-18T05:22:48;14.60;;;9.30;;
10823;SDS011;39116;59.332;18.034;2022-12-18T05:25:15;14.30;;;9.30;;
10823;SDS011;39116;59.332;18.034;2022-12-18T05:27:41;16.73;;;9.60;;
10823;SDS011;39116;59.332;18.034;2022-12-18T05:30:08;17.30;;;10.00;;
10823;SDS011;39116;59.332;18.034;2022-12-18T05:32:36;14.87;;;9.10;;
10823;SDS011;39116;59.332;18.034;2022-12-18T05:35:04;15.57;;;9.87;;
10823;SDS011;39116;59.332;18.034;2022-12-18T05:37:30;14.57;;;9.20;;
10823;SDS011;39116;59.332;18.034;2022-12-18T05:39:57;13.77;;;9.67;;
10823;SDS011;39116;59.332;18.034;2022-12-18T05:42:23;14.67;;;9.47;;
10823;SDS011;39116;59.332;18.034;2022-12-18T05:44:50;16.33;;;10.30;;
10823;SDS011;39116;59.332;18.034;2022-12-18T05:47:16;16.40;;;8.83;;
10823;SDS011;39116;59.332;18.034;2022-12-18T05:49:44;16.83;;;10.60;;
10823;SDS011;39116;59.332;18.034;2022-12-18T05:52:11;14.37;;;9.40;;
10823;SDS011;39116;59.332;18.034;2022-12-18T05:54:37;19.40;;;10.47;;
10823;SDS011;39116;59.332;18.034;2022-12-18T05:57:04;14.20;;;9.03;;
10823;SDS011;39116;59.332;18.034;2022-12-18T05:59:31;17.00;;;9.33;;
10823;SDS011;39116;59.332;18.034;2022-12-18T06:01:58;14.13;;;8.73;;
10823;SDS011;39116;59.332;18.034;2022-12-18T06:04:25;14.57;;;8.40;;
10823;SDS011;39116;59.332;18.034;2022-12-18T06:06:53;15.50;;;9.17;;
10823;SDS011;39116;59.332;18.034;2022-12-18T06:09:20;12.97;;;8.53;;
10823;SDS011;39116;59.332;18.034;2022-12-18T06:11:46;15.40;;;9.37;;
10823;SDS011;39116;59.332;18.034;2022-12-18T06:14:13;15.07;;;9.07;;
10823;SDS011;39116;59.332;18.034;2022-12-18T06:16:42;14.73;;;8.57;;
10823;SDS011;39116;59.332;18.034;2022-12-18T06:19:12;15.20;;;7.77;;
10823;SDS011;39116;59.332;18.034;2022-12-18T06:21:39;18.80;;;8.53;;
10823;SDS011;39116;59.332;18.034;2022-12-18T06:24:07;14.17;;;8.03;;
10823;SDS011;39116;59.332;18.034;2022-12-18T06:26:34;13.03;;;8.47;;
10823;SDS011;39116;59.332;18.034;2022-12-18T06:29:02;15.20;;;8.67;;
10823;SDS011;39116;59.332;18.034;2022-12-18T06:31:29;12.73;;;7.50;;
10823;SDS011;39116;59.332;18.034;2022-12-18T06:33:55;15.30;;;8.67;;
10823;SDS011;39116;59.332;18.034;2022-12-18T06:36:22;15.17;;;9.07;;
10823;SDS011;39116;59.332;18.034;2022-12-18T06:38:48;16.30;;;9.10;;
10823;SDS011;39116;59.332;18.034;2022-12-18T06:41:17;14.93;;;8.93;;
10823;SDS011;39116;59.332;18.034;2022-12-18T06:43:43;15.73;;;8.80;;
10823;SDS011;39116;59.332;18.034;2022-12-18T06:46:10;14.00;;;8.47;;
10823;SDS011;39116;59.332;18.034;2022-12-18T06:48:37;12.93;;;8.00;;
10823;SDS011;39116;59.332;18.034;2022-12-18T06:51:04;13.53;;;8.30;;
10823;SDS011;39116;59.332;18.034;2022-12-18T06:53:31;14.97;;;8.40;;
10823;SDS011;39116;59.332;18.034;2022-12-18T06:55:59;13.70;;;8.87;;
10823;SDS011;39116;59.332;18.034;2022-12-18T06:58:28;13.73;;;8.50;;
10823;SDS011;39116;59.332;18.034;2022-12-18T07:00:58;16.13;;;8.73;;
10823;SDS011;39116;59.332;18.034;2022-12-18T07:03:25;16.07;;;9.60;;
10823;SDS011;39116;59.332;18.034;2022-12-18T07:05:52;15.37;;;8.53;;
10823;SDS011;39116;59.332;18.034;2022-12-18T07:08:18;15.43;;;8.70;;
10823;SDS011;39116;59.332;18.034;2022-12-18T07:10:45;14.33;;;9.37;;
10823;SDS011;39116;59.332;18.034;2022-12-18T07:13:11;14.07;;;8.50;;
10823;SDS011;39116;59.332;18.034;2022-12-18T07:15:39;16.60;;;9.63;;
10823;SDS011;39116;59.332;18.034;2022-12-18T07:18:05;13.63;;;8.73;;
10823;SDS011;39116;59.332;18.034;2022-12-18T07:20:32;15.80;;;9.53;;
10823;SDS011;39116;59.332;18.034;2022-12-18T07:22:59;17.20;;;10.13;;
10823;SDS011;39116;59.332;18.034;2022-12-18T07:25:27;15.13;;;9.70;;
10823;SDS011;39116;59.332;18.034;2022-12-18T07:27:54;19.73;;;9.77;;
10823;SDS011;39116;59.332;18.034;2022-12-18T07:30:20;17.27;;;9.00;;
10823;SDS011;39116;59.332;18.034;2022-12-18T07:32:48;20.07;;;9.70;;
10823;SDS011;39116;59.332;18.034;2022-12-18T07:35:15;17.83;;;9.77;;
10823;SDS011;39116;59.332;18.034;2022-12-18T07:37:41;18.30;;;10.33;;
10823;SDS011;39116;59.332;18.034;2022-12-18T07:40:08;17.13;;;9.63;;
10823;SDS011;39116;59.332;18.034;2022-12-18T07:42:35;14.37;;;9.63;;
10823;SDS011;39116;59.332;18.034;2022-12-18T07:45:02;14.83;;;9.97;;
10823;SDS011;39116;59.332;18.034;2022-12-18T07:47:33;19.87;;;10.40;;
10823;SDS011;39116;59.332;18.034;2022-12-18T07:50:02;16.23;;;10.00;;
10823;SDS011;39116;59.332;18.034;2022-12-18T07:52:28;14.83;;;9.63;;
10823;SDS011;39116;59.332;18.034;2022-12-18T07:54:55;17.00;;;10.50;;
10823;SDS011;39116;59.332;18.034;2022-12-18T07:57:21;14.70;;;9.83;;
10823;SDS011;39116;59.332;18.034;2022-12-18T07:59:47;14.17;;;9.70;;
10823;SDS011;39116;59.332;18.034;2022-12-18T08:02:14;20.20;;;11.30;;
10823;SDS011;39116;59.332;18.034;2022-12-18T08:04:41;16.97;;;11.13;;
10823;SDS011;39116;59.332;18.034;2022-12-18T08:07:08;19.43;;;10.83;;
10823;SDS011;39116;59.332;18.034;2022-12-18T08:09:35;18.27;;;10.53;;
10823;SDS011;39116;59.332;18.034;2022-12-18T08:12:02;18.20;;;10.30;;
10823;SDS011;39116;59.332;18.034;2022-12-18T08:14:29;16.70;;;10.60;;
10823;SDS011;39116;59.332;18.034;2022-12-18T08:16:55;15.33;;;9.80;;
10823;SDS011;39116;59.332;18.034;2022-12-18T08:19:22;16.70;;;10.33;;
10823;SDS011;39116;59.332;18.034;2022-12-18T08:21:48;18.37;;;10.43;;
10823;SDS011;39116;59.332;18.034;2022-12-18T08:24:16;17.50;;;10.90;;
10823;SDS011;39116;59.332;18.034;2022-12-18T08:26:42;17.43;;;10.73;;
10823;SDS011;39116;59.332;18.034;2022-12-18T08:29:09;20.23;;;11.23;;
10823;SDS011;39116;59.332;18.034;2022-12-18T08:31:36;15.03;;;10.37;;
10823;SDS011;39116;59.332;18.034;2022-12-18T08:34:02;17.50;;;11.20;;
10823;SDS011;39116;59.332;18.034;2022-12-18T08:36:29;18.23;;;10.93;;
10823;SDS011;39116;59.332;18.034;2022-12-18T08:38:56;19.20;;;11.90;;
10823;SDS011;39116;59.332;18.034;2022-12-18T08:41:24;18.60;;;11.03;;
10823;SDS011;39116;59.332;18.034;2022-12-18T08:43:50;17.30;;;10.43;;
10823;SDS011;39116;59.332;18.034;2022-12-18T08:46:35;17.83;;;10.53;;
10823;SDS011;39116;59.332;18.034;2022-12-18T08:49:01;17.20;;;10.87;;
10823;SDS011;39116;59.332;18.034;2022-12-18T08:51:28;19.77;;;12.03;;
10823;SDS011;39116;59.332;18.034;2022-12-18T08:53:54;17.57;;;10.63;;
10823;SDS011;39116;59.332;18.034;2022-12-18T08:56:21;18.90;;;10.57;;
10823;SDS011;39116;59.332;18.034;2022-12-18T08:58:50;18.87;;;10.93;;
10823;SDS011;39116;59.332;18.034;2022-12-18T09:01:17;19.47;;;10.83;;
10823;SDS011;39116;59.332;18.034;2022-12-18T09:03:43;19.67;;;10.10;;
10823;SDS011;39116;59.332;18.034;2022-12-18T09:06:12;20.03;;;10.90;;
10823;SDS011;39116;59.332;18.034;2022-12-18T09:08:39;14.70;;;10.43;;
10823;SDS011;39116;59.332;18.034;2022-12-18T09:11:09;14.90;;;9.80;;
10823;SDS011;39116;59.332;18.034;2022-12-18T09:13:37;19.67;;;10.77;;
10823;SDS011;39116;59.332;18.034;2022-12-18T09:16:06;15.37;;;10.90;;
10823;SDS011;39116;59.332;18.034;2022-12-18T09:18:32;16.90;;;10.30;;
10823;SDS011;39116;59.332;18.034;2022-12-18T09:20:59;18.20;;;10.90;;
10823;SDS011;39116;59.332;18.034;2022-12-18T09:23:25;17.53;;;11.87;;
10823;SDS011;39116;59.332;18.034;2022-12-18T09:25:52;20.40;;;10.40;;
10823;SDS011;39116;59.332;18.034;2022-12-18T09:28:24;15.73;;;10.00;;
10823;SDS011;39116;59.332;18.034;2022-12-18T09:30:51;16.83;;;10.53;;
10823;SDS011;39116;59.332;18.034;2022-12-18T09:33:19;16.90;;;10.30;;
10823;SDS011;39116;59.332;18.034;2022-12-18T09:35:45;18.13;;;11.13;;
10823;SDS011;39116;59.332;18.034;2022-12-18T09:38:12;14.40;;;9.03;;
10823;SDS011;39116;59.332;18.034;2022-12-18T09:40:41;22.07;;;9.87;;
10823;SDS011;39116;59.332;18.034;2022-12-18T09:43:09;16.53;;;10.53;;
10823;SDS011;39116;59.332;18.034;2022-12-18T09:45:40;15.47;;;8.83;;
10823;SDS011;39116;59.332;18.034;2022-12-18T09:48:08;15.87;;;9.80;;
10823;SDS011;39116;59.332;18.034;2022-12-18T09:50:38;14.87;;;9.27;;
10823;SDS011;39116;59.332;18.034;2022-12-18T09:53:06;15.77;;;9.80;;
10823;SDS011;39116;59.332;18.034;2022-12-18T09:55:34;17.37;;;9.93;;
10823;SDS011;39116;59.332;18.034;2022-12-18T09:58:02;16.63;;;9.93;;
10823;SDS011;39116;59.332;18.034;2022-12-18T10:00:32;16.10;;;9.67;;
10823;SDS011;39116;59.332;18.034;2022-12-18T10:02:59;15.90;;;9.67;;
10823;SDS011;39116;59.332;18.034;2022-12-18T10:05:28;14.63;;;9.33;;
10823;SDS011;39116;59.332;18.034;2022-12-18T10:07:59;14.80;;;8.80;;
10823;SDS011;39116;59.332;18.034;2022-12-18T10:10:32;16.27;;;10.33;;
10823;SDS011;39116;59.332;18.034;2022-12-18T10:13:02;15.07;;;9.30;;
10823;SDS011;39116;59.332;18.034;2022-12-18T10:15:34;14.30;;;9.47;;
10823;SDS011;39116;59.332;18.034;2022-12-18T10:18:04;17.47;;;10.10;;
10823;SDS011;39116;59.332;18.034;2022-12-18T10:20:35;16.67;;;10.10;;
10823;SDS011;39116;59.332;18.034;2022-12-18T10:23:08;14.63;;;9.97;;
10823;SDS011;39116;59.332;18.034;2022-12-18T10:25:38;17.13;;;10.70;;
10823;SDS011;39116;59.332;18.034;2022-12-18T10:28:08;14.00;;;8.60;;
10823;SDS011;39116;59.332;18.034;2022-12-18T10:30:36;17.17;;;8.67;;
10823;SDS011;39116;59.332;18.034;2022-12-18T10:33:04;16.17;;;10.37;;
10823;SDS011;39116;59.332;18.034;2022-12-18T10:35:31;14.00;;;9.93;;
10823;SDS011;39116;59.332;18.034;2022-12-18T10:38:05;17.43;;;9.57;;
10823;SDS011;39116;59.332;18.034;2022-12-18T10:40:33;21.30;;;9.80;;
10823;SDS011;39116;59.332;18.034;2022-12-18T10:43:14;15.87;;;9.40;;
10823;SDS011;39116;59.332;18.034;2022-12-18T10:45:41;16.03;;;10.37;;
10823;SDS011;39116;59.332;18.034;2022-12-18T10:48:17;14.23;;;9.40;;
10823;SDS011;39116;59.332;18.034;2022-12-18T10:50:45;14.97;;;9.20;;
10823;SDS011;39116;59.332;18.034;2022-12-18T10:53:13;16.10;;;9.30;;
10823;SDS011;39116;59.332;18.034;2022-12-18T10:55:43;18.30;;;10.80;;
10823;SDS011;39116;59.332;18.034;2022-12-18T10:58:16;19.27;;;10.50;;
10823;SDS011;39116;59.332;18.034;2022-12-18T11:00:43;14.77;;;9.97;;
10823;SDS011;39116;59.332;18.034;2022-12-18T11:03:28;15.70;;;10.20;;
10823;SDS011;39116;59.332;18.034;2022-12-18T11:06:00;14.10;;;9.53;;
10823;SDS011;39116;59.332;18.034;2022-12-18T11:08:27;16.67;;;9.10;;
10823;SDS011;39116;59.332;18.034;2022-12-18T11:10:55;15.67;;;10.10;;
10823;SDS011;39116;59.332;18.034;2022-12-18T11:13:22;14.53;;;9.23;;
10823;SDS011;39116;59.332;18.034;2022-12-18T11:15:49;16.33;;;10.90;;
10823;SDS011;39116;59.332;18.034;2022-12-18T11:18:16;16.40;;;9.87;;
10823;SDS011;39116;59.332;18.034;2022-12-18T11:20:44;16.10;;;10.10;;
10823;SDS011;39116;59.332;18.034;2022-12-18T11:23:16;15.87;;;9.40;;
10823;SDS011;39116;59.332;18.034;2022-12-18T11:25:49;16.20;;;10.00;;
10823;SDS011;39116;59.332;18.034;2022-12-18T11:28:26;14.77;;;9.80;;
10823;SDS011;39116;59.332;18.034;2022-12-18T11:31:08;16.67;;;10.00;;
10823;SDS011;39116;59.332;18.034;2022-12-18T11:33:35;13.00;;;9.60;;
10823;SDS011;39116;59.332;18.034;2022-12-18T11:36:03;18.93;;;11.00;;
10823;SDS011;39116;59.332;18.034;2022-12-18T11:38:31;16.90;;;10.20;;
10823;SDS011;39116;59.332;18.034;2022-12-18T11:40:59;12.40;;;9.13;;
10823;SDS011;39116;59.332;18.034;2022-12-18T11:43:28;15.73;;;9.57;;
10823;SDS011;39116;59.332;18.034;2022-12-18T11:45:58;15.90;;;9.90;;
10823;SDS011;39116;59.332;18.034;2022-12-18T11:48:25;14.73;;;10.30;;
10823;SDS011;39116;59.332;18.034;2022-12-18T11:50:54;17.00;;;9.93;;
10823;SDS011;39116;59.332;18.034;2022-12-18T11:53:20;13.07;;;9.47;;
10823;SDS011;39116;59.332;18.034;2022-12-18T11:55:49;13.60;;;9.07;;
10823;SDS011;39116;59.332;18.034;2022-12-18T11:58:19;20.57;;;9.13;;
10823;SDS011;39116;59.332;18.034;2022-12-18T12:00:52;12.93;;;8.50;;
10823;SDS011;39116;59.332;18.034;2022-12-18T12:03:24;13.90;;;8.67;;
10823;SDS011;39116;59.332;18.034;2022-12-18T12:05:57;15.07;;;9.37;;
10823;SDS011;39116;59.332;18.034;2022-12-18T12:08:27;16.10;;;10.30;;
10823;SDS011;39116;59.332;18.034;2022-12-18T12:10:57;17.30;;;9.30;;
10823;SDS011;39116;59.332;18.034;2022-12-18T12:13:33;13.27;;;9.77;;
10823;SDS011;39116;59.332;18.034;2022-12-18T12:16:06;13.03;;;8.60;;
10823;SDS011;39116;59.332;18.034;2022-12-18T12:18:40;17.00;;;9.70;;
10823;SDS011;39116;59.332;18.034;2022-12-18T12:21:09;15.60;;;9.37;;
10823;SDS011;39116;59.332;18.034;2022-12-18T12:23:41;19.83;;;9.90;;
10823;SDS011;39116;59.332;18.034;2022-12-18T12:26:10;13.70;;;9.80;;
10823;SDS011;39116;59.332;18.034;2022-12-18T12:28:44;14.13;;;9.10;;
10823;SDS011;39116;59.332;18.034;2022-12-18T12:31:17;13.57;;;9.20;;
10823;SDS011;39116;59.332;18.034;2022-12-18T12:33:48;14.70;;;9.03;;
10823;SDS011;39116;59.332;18.034;2022-12-18T12:36:18;13.93;;;8.93;;
10823;SDS011;39116;59.332;18.034;2022-12-18T12:38:47;15.57;;;9.17;;
10823;SDS011;39116;59.332;18.034;2022-12-18T12:41:16;14.60;;;9.27;;
10823;SDS011;39116;59.332;18.034;2022-12-18T12:44:02;16.87;;;9.60;;
10823;SDS011;39116;59.332;18.034;2022-12-18T12:46:32;14.40;;;9.17;;
10823;SDS011;39116;59.332;18.034;2022-12-18T12:49:01;15.17;;;8.80;;
10823;SDS011;39116;59.332;18.034;2022-12-18T12:51:29;14.87;;;9.13;;
10823;SDS011;39116;59.332;18.034;2022-12-18T12:53:57;15.97;;;8.87;;
10823;SDS011;39116;59.332;18.034;2022-12-18T12:56:24;15.20;;;8.87;;
10823;SDS011;39116;59.332;18.034;2022-12-18T12:58:54;14.57;;;8.20;;
10823;SDS011;39116;59.332;18.034;2022-12-18T13:01:25;18.63;;;8.97;;
10823;SDS011;39116;59.332;18.034;2022-12-18T13:03:58;16.00;;;8.40;;
10823;SDS011;39116;59.332;18.034;2022-12-18T13:06:36;13.43;;;7.37;;
10823;SDS011;39116;59.332;18.034;2022-12-18T13:09:04;13.87;;;7.83;;
10823;SDS011;39116;59.332;18.034;2022-12-18T13:11:37;14.57;;;7.90;;
10823;SDS011;39116;59.332;18.034;2022-12-18T13:14:26;12.13;;;8.00;;
10823;SDS011;39116;59.332;18.034;2022-12-18T13:19:36;14.00;;;8.15;;
10823;SDS011;39116;59.332;18.034;2022-12-18T13:22:02;14.63;;;8.00;;
10823;SDS011;39116;59.332;18.034;2022-12-18T13:24:30;14.47;;;8.00;;
10823;SDS011;39116;59.332;18.034;2022-12-18T13:26:57;14.17;;;7.70;;
10823;SDS011;39116;59.332;18.034;2022-12-18T13:29:43;10.83;;;7.23;;
10823;SDS011;39116;59.332;18.034;2022-12-18T13:32:20;13.20;;;7.47;;
10823;SDS011;39116;59.332;18.034;2022-12-18T13:34:48;12.60;;;7.05;;
10823;SDS011;39116;59.332;18.034;2022-12-18T13:37:39;12.70;;;6.90;;
10823;SDS011;39116;59.332;18.034;2022-12-18T13:42:47;12.30;;;5.97;;
10823;SDS011;39116;59.332;18.034;2022-12-18T13:45:35;10.60;;;6.43;;
10823;SDS011;39116;59.332;18.034;2022-12-18T13:48:03;12.77;;;6.10;;
10823;SDS011;39116;59.332;18.034;2022-12-18T13:50:31;12.10;;;6.97;;
10823;SDS011;39116;59.332;18.034;2022-12-18T13:52:59;11.73;;;6.57;;
10823;SDS011;39116;59.332;18.034;2022-12-18T13:55:26;11.43;;;6.43;;
10823;SDS011;39116;59.332;18.034;2022-12-18T13:58:02;13.70;;;6.90;;
10823;SDS011;39116;59.332;18.034;2022-12-18T14:00:29;11.90;;;6.33;;
10823;SDS011;39116;59.332;18.034;2022-12-18T14:02:56;14.32;;;7.22;;
10823;SDS011;39116;59.332;18.034;2022-12-18T14:05:23;15.00;;;6.85;;
10823;SDS011;39116;59.332;18.034;2022-12-18T14:07:51;8.93;;;6.10;;
10823;SDS011;39116;59.332;18.034;2022-12-18T14:10:18;11.57;;;6.60;;
10823;SDS011;39116;59.332;18.034;2022-12-18T14:12:46;11.75;;;5.65;;
10823;SDS011;39116;59.332;18.034;2022-12-18T14:15:28;12.20;;;6.20;;
10823;SDS011;39116;59.332;18.034;2022-12-18T14:17:57;12.47;;;5.63;;
10823;SDS011;39116;59.332;18.034;2022-12-18T14:20:24;12.00;;;5.50;;
10823;SDS011;39116;59.332;18.034;2022-12-18T14:22:52;10.17;;;5.90;;
10823;SDS011;39116;59.332;18.034;2022-12-18T14:25:20;11.80;;;6.30;;
10823;SDS011;39116;59.332;18.034;2022-12-18T14:27:48;10.13;;;5.50;;
10823;SDS011;39116;59.332;18.034;2022-12-18T14:30:28;9.80;;;5.27;;